createdAt,value
2018-09-13T00:03:11.781Z,1.98
2018-09-13T00:08:15.106Z,1.98
2018-09-13T00:13:18.422Z,1.80
2018-09-13T00:18:21.718Z,1.32
2018-09-13T00:23:25.027Z,3.52
2018-09-13T00:28:28.349Z,3.20
2018-09-13T00:33:31.673Z,1.82
2018-09-13T00:38:35.011Z,1.80
2018-09-13T00:43:38.358Z,2.02
2018-09-13T00:48:41.680Z,2.10
2018-09-13T00:53:45.010Z,2.83
2018-09-13T00:58:48.322Z,1.42
2018-09-13T01:03:51.787Z,1.52
2018-09-13T01:08:55.098Z,1.47
2018-09-13T01:13:58.423Z,1.40
2018-09-13T01:19:01.887Z,2.50
2018-09-13T01:24:05.239Z,2.42
2018-09-13T01:29:08.561Z,1.50
2018-09-13T01:34:11.884Z,1.45
2018-09-13T01:39:15.196Z,4.90
2018-09-13T01:44:18.504Z,2.12
2018-09-13T01:49:21.859Z,2.17
2018-09-13T01:54:25.171Z,2.55
2018-09-13T01:59:28.486Z,1.10
2018-09-13T02:04:31.844Z,1.35
2018-09-13T02:09:35.163Z,1.40
2018-09-13T02:14:38.599Z,1.52
2018-09-13T02:19:41.915Z,2.17
2018-09-13T02:24:45.210Z,3.37
2018-09-13T02:29:48.552Z,2.37
2018-09-13T02:34:51.921Z,4.03
2018-09-13T02:39:55.250Z,1.37
2018-09-13T02:44:58.581Z,1.05
2018-09-13T02:50:01.924Z,1.05
2018-09-13T02:55:05.490Z,2.27
2018-09-13T03:00:09.520Z,1.90
2018-09-13T03:05:12.836Z,1.70
2018-09-13T03:10:16.170Z,3.80
2018-09-13T03:15:19.460Z,2.60
2018-09-13T03:20:22.767Z,3.73
2018-09-13T03:25:26.110Z,3.47
2018-09-13T03:30:29.467Z,2.15
2018-09-13T03:35:32.832Z,2.25
2018-09-13T03:40:36.161Z,3.40
2018-09-13T03:45:39.470Z,4.78
2018-09-13T03:50:42.809Z,1.72
2018-09-13T03:55:46.150Z,3.20
2018-09-13T04:00:49.508Z,2.27
2018-09-13T04:05:52.879Z,1.57
2018-09-13T04:10:56.230Z,2.35
2018-09-13T04:15:59.572Z,1.47
2018-09-13T04:21:02.939Z,2.12
2018-09-13T04:26:06.390Z,4.85
2018-09-13T04:31:09.722Z,6.15
2018-09-13T04:36:13.415Z,1.70
2018-09-13T04:41:16.746Z,1.75
2018-09-13T04:46:20.087Z,6.37
2018-09-13T04:51:23.421Z,1.50
2018-09-13T04:56:26.759Z,3.27
2018-09-13T05:07:36.763Z,6.10
2018-09-13T05:12:40.139Z,3.58
2018-09-13T05:17:43.467Z,3.27
2018-09-13T05:22:46.790Z,1.95
2018-09-13T05:27:50.105Z,2.58
2018-09-13T05:32:53.451Z,2.12
2018-09-13T05:37:56.766Z,3.25
2018-09-13T05:43:00.100Z,4.25
2018-09-13T05:48:03.461Z,4.30
2018-09-13T05:53:06.802Z,4.42
2018-09-13T05:58:10.132Z,6.20
2018-09-13T06:03:13.475Z,4.92
2018-09-13T06:08:16.820Z,4.37
2018-09-13T06:13:20.163Z,5.30
2018-09-13T06:18:23.502Z,4.17
2018-09-13T06:23:26.873Z,4.17
2018-09-13T06:28:30.200Z,4.47
2018-09-13T06:33:33.551Z,4.05
2018-09-13T06:38:36.922Z,5.25
2018-09-13T06:43:40.258Z,5.92
2018-09-13T06:48:43.670Z,7.80
2018-09-13T06:53:46.995Z,4.37
2018-09-13T06:58:50.330Z,6.40
2018-09-13T07:03:53.638Z,4.70
2018-09-13T07:08:57.003Z,5.60
2018-09-13T07:14:00.359Z,3.40
2018-09-13T07:19:03.758Z,7.87
2018-09-13T07:24:07.160Z,5.87
2018-09-13T07:29:10.510Z,9.60
2018-09-13T07:34:13.828Z,4.90
2018-09-13T07:39:17.157Z,3.80
2018-09-13T07:44:20.525Z,3.72
2018-09-13T07:49:23.907Z,7.10
2018-09-13T07:54:27.200Z,6.28
2018-09-13T07:59:30.528Z,6.72
2018-09-13T08:04:33.883Z,5.45
2018-09-13T08:09:37.203Z,6.60
2018-09-13T08:14:40.574Z,4.20
2018-09-13T08:19:43.911Z,11.05
2018-09-13T08:24:47.246Z,5.75
2018-09-13T08:29:50.546Z,4.70
2018-09-13T08:34:53.898Z,5.65
2018-09-13T08:39:57.326Z,8.70
2018-09-13T08:45:00.567Z,6.92
2018-09-13T08:50:03.930Z,7.85
2018-09-13T08:55:09.537Z,9.18
2018-09-13T09:00:14.027Z,8.97
2018-09-13T09:05:17.356Z,9.90
2018-09-13T09:10:20.720Z,12.25
2018-09-13T09:15:24.067Z,9.43
2018-09-13T09:20:27.383Z,6.53
2018-09-13T09:25:30.706Z,5.15
2018-09-13T09:30:34.075Z,9.68
2018-09-13T09:35:37.399Z,7.90
2018-09-13T09:40:40.769Z,11.53
2018-09-13T09:45:44.148Z,12.95
2018-09-13T09:50:47.488Z,9.80
2018-09-13T09:55:50.830Z,10.60
2018-09-13T10:00:59.679Z,9.15
2018-09-13T10:06:02.999Z,9.98
2018-09-13T10:11:06.379Z,10.08
2018-09-13T10:16:15.060Z,12.03
2018-09-13T10:21:23.655Z,8.93
2018-09-13T10:26:32.375Z,6.15
2018-09-13T10:31:41.064Z,9.98
2018-09-13T10:36:49.863Z,6.75
2018-09-13T10:41:58.727Z,11.93
2018-09-13T10:47:07.322Z,12.98
2018-09-13T10:52:18.194Z,9.98
2018-09-13T10:57:26.704Z,13.98
2018-09-13T11:02:30.067Z,12.68
2018-09-13T11:07:33.461Z,9.37
2018-09-13T11:12:43.955Z,11.43
2018-09-13T11:17:47.270Z,12.25
2018-09-13T11:22:53.564Z,16.93
2018-09-13T11:27:56.902Z,15.40
2018-09-13T11:33:00.242Z,10.88
2018-09-13T11:38:03.590Z,10.48
2018-09-13T11:43:06.910Z,8.25
2018-09-13T11:48:10.230Z,9.45
2018-09-13T11:53:13.602Z,11.45
2018-09-13T11:58:17.251Z,9.53
2018-09-13T12:03:20.598Z,7.53
2018-09-13T12:08:23.958Z,9.98
2018-09-13T12:13:27.264Z,9.40
2018-09-13T12:18:30.631Z,7.37
2018-09-13T12:23:33.967Z,12.07
2018-09-13T12:28:37.315Z,9.88
2018-09-13T12:33:40.699Z,11.00
2018-09-13T12:38:44.031Z,10.93
2018-09-13T12:43:47.364Z,8.95
2018-09-13T12:48:50.794Z,13.35
2018-09-13T12:53:54.163Z,11.78
2018-09-13T12:58:57.514Z,11.28
2018-09-13T13:04:00.840Z,11.75
2018-09-13T13:09:04.863Z,7.87
2018-09-13T13:14:08.226Z,11.18
2018-09-13T13:19:11.556Z,13.72
2018-09-13T13:24:14.890Z,13.22
2018-09-13T13:29:18.206Z,16.57
2018-09-13T13:34:21.539Z,14.58
2018-09-13T13:39:24.853Z,10.75
2018-09-13T13:44:28.154Z,10.63
2018-09-13T13:49:31.692Z,10.65
2018-09-13T13:54:34.827Z,11.68
2018-09-13T13:59:38.164Z,11.90
2018-09-13T14:04:41.570Z,10.72
2018-09-13T14:09:45.085Z,12.88
2018-09-13T14:14:48.219Z,9.68
2018-09-13T14:25:26.238Z,11.53
2018-09-13T14:30:29.528Z,8.98
2018-09-13T14:35:32.870Z,8.15
2018-09-13T14:40:36.192Z,10.82
2018-09-13T14:45:39.492Z,9.08
2018-09-13T14:50:42.840Z,11.65
2018-09-13T14:55:46.150Z,7.08
2018-09-13T15:00:49.461Z,8.73
2018-09-13T15:05:52.780Z,5.40
2018-09-13T15:10:56.095Z,8.13
2018-09-13T15:15:59.390Z,9.63
2018-09-13T15:21:02.691Z,10.60
2018-09-13T15:26:06.066Z,8.30
2018-09-13T15:31:09.490Z,10.75
2018-09-13T15:36:12.731Z,6.20
2018-09-13T15:41:16.293Z,9.40
2018-09-13T15:46:19.598Z,7.75
2018-09-13T15:51:22.916Z,6.22
2018-09-13T15:56:26.225Z,4.80
2018-09-13T16:01:29.599Z,7.58
2018-09-13T16:06:32.930Z,10.40
2018-09-13T16:11:36.290Z,4.90
2018-09-13T16:16:39.611Z,8.35
2018-09-13T16:21:42.932Z,13.38
2018-09-13T16:26:46.239Z,10.80
2018-09-13T17:45:00.612Z,4.08
2018-09-13T17:50:04.147Z,7.22
2018-09-13T17:55:07.782Z,5.87
2018-09-13T18:00:13.451Z,6.08
2018-09-13T18:05:16.913Z,7.60
2018-09-13T18:10:20.259Z,4.37
2018-09-13T18:15:23.732Z,6.97
2018-09-13T18:20:27.083Z,6.75
2018-09-13T19:16:10.902Z,4.33
2018-09-13T19:21:14.263Z,4.75
2018-09-13T19:26:17.623Z,5.75
2018-09-13T19:31:20.944Z,8.50
2018-09-13T19:36:24.305Z,4.95
2018-09-13T19:41:27.897Z,4.65
2018-09-13T19:46:31.260Z,5.03
2018-09-13T19:51:34.700Z,8.98
2018-09-13T19:56:38.165Z,5.53
2018-09-13T20:01:41.486Z,5.08
2018-09-13T20:06:44.872Z,6.03
2018-09-13T20:45:34.656Z,7.55
2018-09-13T20:50:38.350Z,8.43
2018-09-13T20:55:42.417Z,8.40
2018-09-13T21:00:46.319Z,8.78
2018-09-13T21:11:28.195Z,8.50
2018-09-13T21:16:31.779Z,8.55
2018-09-13T21:21:35.543Z,7.35
2018-09-13T21:26:38.909Z,7.90
2018-09-13T21:31:42.287Z,10.15
2018-09-13T21:36:45.628Z,6.12
2018-09-13T21:41:48.959Z,5.78
2018-09-13T21:46:52.297Z,7.30
2018-09-13T21:57:25.874Z,9.65
2018-09-13T22:02:29.217Z,5.42
2018-09-13T22:07:32.699Z,3.55
2018-09-13T22:12:36.083Z,4.10
2018-09-13T22:17:39.484Z,5.15
2018-09-13T22:22:42.839Z,2.80
2018-09-13T22:27:46.202Z,4.90
2018-09-13T22:32:49.547Z,4.47
2018-09-13T22:37:53.659Z,5.45
2018-09-13T22:42:57.303Z,5.62
2018-09-13T22:48:00.740Z,5.05
2018-09-13T22:53:04.389Z,4.05
2018-09-13T22:58:07.948Z,4.22
2018-09-13T23:03:11.308Z,4.70
2018-09-13T23:08:14.677Z,3.77
2018-09-13T23:13:18.069Z,3.33
2018-09-13T23:18:21.391Z,2.80
2018-09-13T23:23:24.726Z,3.17
2018-09-13T23:28:28.050Z,4.97
2018-09-13T23:33:31.446Z,2.60
2018-09-13T23:38:34.812Z,3.33
2018-09-13T23:43:38.155Z,3.92
2018-09-13T23:48:41.465Z,3.40
2018-09-13T23:53:44.826Z,5.60
2018-09-13T23:58:48.165Z,3.20
